sensor_id;sensor_type;location;lat;lon;timestamp;P1;durP1;ratioP1;P2;durP2;ratioP2
80175;SDS011;71945;42.122;24.732;2023-10-19T00:02:18;0.20;;;0.20;;
80175;SDS011;71945;42.122;24.732;2023-10-19T00:04:44;0.28;;;0.28;;
80175;SDS011;71945;42.122;24.732;2023-10-19T00:07:11;0.20;;;0.20;;
80175;SDS011;71945;42.122;24.732;2023-10-19T00:09:40;0.20;;;0.20;;
80175;SDS011;71945;42.122;24.732;2023-10-19T00:12:13;0.20;;;0.20;;
80175;SDS011;71945;42.122;24.732;2023-10-19T00:14:41;0.20;;;0.20;;
80175;SDS011;71945;42.122;24.732;2023-10-19T00:17:19;0.20;;;0.20;;
80175;SDS011;71945;42.122;24.732;2023-10-19T00:19:48;0.20;;;0.20;;
80175;SDS011;71945;42.122;24.732;2023-10-19T00:22:43;0.20;;;0.20;;
80175;SDS011;71945;42.122;24.732;2023-10-19T00:25:14;0.20;;;0.20;;
80175;SDS011;71945;42.122;24.732;2023-10-19T00:27:40;0.20;;;0.20;;
80175;SDS011;71945;42.122;24.732;2023-10-19T00:30:09;0.20;;;0.20;;
80175;SDS011;71945;42.122;24.732;2023-10-19T00:32:35;0.20;;;0.20;;
80175;SDS011;71945;42.122;24.732;2023-10-19T00:35:04;0.20;;;0.20;;
80175;SDS011;71945;42.122;24.732;2023-10-19T00:37:51;0.20;;;0.20;;
80175;SDS011;71945;42.122;24.732;2023-10-19T00:40:17;0.20;;;0.20;;
80175;SDS011;71945;42.122;24.732;2023-10-19T00:43:02;0.20;;;0.20;;
80175;SDS011;71945;42.122;24.732;2023-10-19T00:45:36;0.20;;;0.20;;
80175;SDS011;71945;42.122;24.732;2023-10-19T00:48:06;0.20;;;0.20;;
80175;SDS011;71945;42.122;24.732;2023-10-19T00:50:36;0.20;;;0.20;;
80175;SDS011;71945;42.122;24.732;2023-10-19T00:53:17;0.20;;;0.20;;
80175;SDS011;71945;42.122;24.732;2023-10-19T00:55:43;0.20;;;0.20;;
80175;SDS011;71945;42.122;24.732;2023-10-19T00:58:17;0.20;;;0.20;;
80175;SDS011;71945;42.122;24.732;2023-10-19T01:00:47;0.20;;;0.20;;
80175;SDS011;71945;42.122;24.732;2023-10-19T01:03:20;0.20;;;0.20;;
80175;SDS011;71945;42.122;24.732;2023-10-19T01:05:46;0.20;;;0.20;;
80175;SDS011;71945;42.122;24.732;2023-10-19T01:08:17;0.20;;;0.20;;
80175;SDS011;71945;42.122;24.732;2023-10-19T01:10:57;0.20;;;0.20;;
80175;SDS011;71945;42.122;24.732;2023-10-19T01:13:29;0.20;;;0.20;;
80175;SDS011;71945;42.122;24.732;2023-10-19T01:16:02;0.20;;;0.20;;
80175;SDS011;71945;42.122;24.732;2023-10-19T01:18:30;0.20;;;0.20;;
80175;SDS011;71945;42.122;24.732;2023-10-19T01:20:58;0.20;;;0.20;;
80175;SDS011;71945;42.122;24.732;2023-10-19T01:23:32;0.20;;;0.20;;
80175;SDS011;71945;42.122;24.732;2023-10-19T01:26:02;0.20;;;0.20;;
80175;SDS011;71945;42.122;24.732;2023-10-19T01:28:35;0.30;;;0.30;;
80175;SDS011;71945;42.122;24.732;2023-10-19T01:31:18;0.20;;;0.20;;
80175;SDS011;71945;42.122;24.732;2023-10-19T01:33:59;0.20;;;0.20;;
80175;SDS011;71945;42.122;24.732;2023-10-19T01:36:32;0.20;;;0.20;;
80175;SDS011;71945;42.122;24.732;2023-10-19T01:39:07;0.20;;;0.20;;
80175;SDS011;71945;42.122;24.732;2023-10-19T01:41:39;0.22;;;0.22;;
80175;SDS011;71945;42.122;24.732;2023-10-19T01:44:06;0.20;;;0.20;;
80175;SDS011;71945;42.122;24.732;2023-10-19T01:46:33;0.20;;;0.20;;
80175;SDS011;71945;42.122;24.732;2023-10-19T01:49:00;0.30;;;0.30;;
80175;SDS011;71945;42.122;24.732;2023-10-19T01:51:33;0.20;;;0.20;;
80175;SDS011;71945;42.122;24.732;2023-10-19T01:54:04;0.20;;;0.20;;
80175;SDS011;71945;42.122;24.732;2023-10-19T01:56:33;0.20;;;0.20;;
80175;SDS011;71945;42.122;24.732;2023-10-19T01:59:03;0.20;;;0.20;;
80175;SDS011;71945;42.122;24.732;2023-10-19T02:01:30;0.20;;;0.20;;
80175;SDS011;71945;42.122;24.732;2023-10-19T02:04:01;0.20;;;0.20;;
80175;SDS011;71945;42.122;24.732;2023-10-19T02:06:29;0.20;;;0.20;;
80175;SDS011;71945;42.122;24.732;2023-10-19T02:09:02;0.20;;;0.20;;
80175;SDS011;71945;42.122;24.732;2023-10-19T02:11:53;0.20;;;0.20;;
80175;SDS011;71945;42.122;24.732;2023-10-19T02:14:26;0.20;;;0.20;;
80175;SDS011;71945;42.122;24.732;2023-10-19T02:16:57;0.20;;;0.20;;
80175;SDS011;71945;42.122;24.732;2023-10-19T02:19:28;0.20;;;0.20;;
80175;SDS011;71945;42.122;24.732;2023-10-19T02:21:55;0.20;;;0.20;;
80175;SDS011;71945;42.122;24.732;2023-10-19T02:24:29;0.20;;;0.20;;
80175;SDS011;71945;42.122;24.732;2023-10-19T02:26:55;0.20;;;0.20;;
80175;SDS011;71945;42.122;24.732;2023-10-19T02:29:22;0.20;;;0.20;;
80175;SDS011;71945;42.122;24.732;2023-10-19T02:31:48;0.20;;;0.20;;
80175;SDS011;71945;42.122;24.732;2023-10-19T02:34:18;0.20;;;0.20;;
80175;SDS011;71945;42.122;24.732;2023-10-19T02:36:45;0.20;;;0.20;;
80175;SDS011;71945;42.122;24.732;2023-10-19T02:39:14;0.20;;;0.20;;
80175;SDS011;71945;42.122;24.732;2023-10-19T02:41:45;0.20;;;0.20;;
80175;SDS011;71945;42.122;24.732;2023-10-19T02:44:15;0.20;;;0.20;;
80175;SDS011;71945;42.122;24.732;2023-10-19T02:46:43;0.20;;;0.20;;
80175;SDS011;71945;42.122;24.732;2023-10-19T02:49:13;0.20;;;0.20;;
80175;SDS011;71945;42.122;24.732;2023-10-19T02:51:43;0.20;;;0.20;;
80175;SDS011;71945;42.122;24.732;2023-10-19T02:54:10;0.20;;;0.20;;
80175;SDS011;71945;42.122;24.732;2023-10-19T02:56:55;0.20;;;0.20;;
80175;SDS011;71945;42.122;24.732;2023-10-19T02:59:24;0.20;;;0.20;;
80175;SDS011;71945;42.122;24.732;2023-10-19T03:01:58;0.20;;;0.20;;
80175;SDS011;71945;42.122;24.732;2023-10-19T03:04:40;0.20;;;0.20;;
80175;SDS011;71945;42.122;24.732;2023-10-19T03:07:13;0.20;;;0.20;;
80175;SDS011;71945;42.122;24.732;2023-10-19T03:09:40;0.20;;;0.20;;
80175;SDS011;71945;42.122;24.732;2023-10-19T03:12:18;0.25;;;0.25;;
80175;SDS011;71945;42.122;24.732;2023-10-19T03:14:45;0.20;;;0.20;;
80175;SDS011;71945;42.122;24.732;2023-10-19T03:17:14;0.20;;;0.20;;
80175;SDS011;71945;42.122;24.732;2023-10-19T03:19:41;0.20;;;0.20;;
80175;SDS011;71945;42.122;24.732;2023-10-19T03:22:07;0.20;;;0.20;;
80175;SDS011;71945;42.122;24.732;2023-10-19T03:24:34;0.30;;;0.30;;
80175;SDS011;71945;42.122;24.732;2023-10-19T03:27:09;0.20;;;0.20;;
80175;SDS011;71945;42.122;24.732;2023-10-19T03:29:42;0.20;;;0.20;;
80175;SDS011;71945;42.122;24.732;2023-10-19T03:32:21;0.20;;;0.20;;
80175;SDS011;71945;42.122;24.732;2023-10-19T03:35:00;0.30;;;0.30;;
80175;SDS011;71945;42.122;24.732;2023-10-19T03:37:26;0.25;;;0.25;;
80175;SDS011;71945;42.122;24.732;2023-10-19T03:39:55;0.20;;;0.20;;
80175;SDS011;71945;42.122;24.732;2023-10-19T03:42:21;0.20;;;0.20;;
80175;SDS011;71945;42.122;24.732;2023-10-19T03:44:51;0.20;;;0.20;;
80175;SDS011;71945;42.122;24.732;2023-10-19T03:47:20;0.20;;;0.20;;
80175;SDS011;71945;42.122;24.732;2023-10-19T03:49:51;0.20;;;0.20;;
80175;SDS011;71945;42.122;24.732;2023-10-19T03:52:17;0.20;;;0.20;;
80175;SDS011;71945;42.122;24.732;2023-10-19T03:54:42;0.20;;;0.20;;
80175;SDS011;71945;42.122;24.732;2023-10-19T03:57:09;0.20;;;0.20;;
80175;SDS011;71945;42.122;24.732;2023-10-19T03:59:47;0.20;;;0.20;;
80175;SDS011;71945;42.122;24.732;2023-10-19T04:02:23;0.20;;;0.20;;
80175;SDS011;71945;42.122;24.732;2023-10-19T04:04:49;0.20;;;0.20;;
80175;SDS011;71945;42.122;24.732;2023-10-19T04:07:17;0.20;;;0.20;;
80175;SDS011;71945;42.122;24.732;2023-10-19T04:09:54;0.20;;;0.20;;
80175;SDS011;71945;42.122;24.732;2023-10-19T04:12:29;0.20;;;0.20;;
80175;SDS011;71945;42.122;24.732;2023-10-19T04:15:00;0.20;;;0.20;;
80175;SDS011;71945;42.122;24.732;2023-10-19T04:17:38;0.30;;;0.30;;
80175;SDS011;71945;42.122;24.732;2023-10-19T04:20:05;0.20;;;0.20;;
80175;SDS011;71945;42.122;24.732;2023-10-19T04:22:52;0.20;;;0.20;;
80175;SDS011;71945;42.122;24.732;2023-10-19T04:25:18;0.30;;;0.30;;
80175;SDS011;71945;42.122;24.732;2023-10-19T04:27:46;0.20;;;0.20;;
80175;SDS011;71945;42.122;24.732;2023-10-19T04:30:13;0.20;;;0.20;;
80175;SDS011;71945;42.122;24.732;2023-10-19T04:32:43;0.20;;;0.20;;
80175;SDS011;71945;42.122;24.732;2023-10-19T04:35:12;0.20;;;0.20;;
80175;SDS011;71945;42.122;24.732;2023-10-19T04:37:40;0.20;;;0.20;;
80175;SDS011;71945;42.122;24.732;2023-10-19T04:40:10;0.20;;;0.20;;
80175;SDS011;71945;42.122;24.732;2023-10-19T04:42:37;0.20;;;0.20;;
80175;SDS011;71945;42.122;24.732;2023-10-19T04:45:03;1.02;;;1.02;;
80175;SDS011;71945;42.122;24.732;2023-10-19T04:47:30;0.30;;;0.30;;
80175;SDS011;71945;42.122;24.732;2023-10-19T04:50:00;0.25;;;0.25;;
80175;SDS011;71945;42.122;24.732;2023-10-19T04:52:26;0.20;;;0.20;;
80175;SDS011;71945;42.122;24.732;2023-10-19T04:54:52;0.30;;;0.30;;
80175;SDS011;71945;42.122;24.732;2023-10-19T04:57:19;0.20;;;0.20;;
80175;SDS011;71945;42.122;24.732;2023-10-19T04:59:46;0.20;;;0.20;;
80175;SDS011;71945;42.122;24.732;2023-10-19T05:02:12;0.20;;;0.20;;
80175;SDS011;71945;42.122;24.732;2023-10-19T05:04:38;0.20;;;0.20;;
80175;SDS011;71945;42.122;24.732;2023-10-19T05:07:03;0.20;;;0.20;;
80175;SDS011;71945;42.122;24.732;2023-10-19T05:09:31;0.20;;;0.20;;
80175;SDS011;71945;42.122;24.732;2023-10-19T05:11:57;0.28;;;0.28;;
80175;SDS011;71945;42.122;24.732;2023-10-19T05:14:23;0.30;;;0.30;;
80175;SDS011;71945;42.122;24.732;2023-10-19T05:16:49;0.30;;;0.30;;
80175;SDS011;71945;42.122;24.732;2023-10-19T05:19:15;0.20;;;0.20;;
80175;SDS011;71945;42.122;24.732;2023-10-19T05:21:41;0.20;;;0.20;;
80175;SDS011;71945;42.122;24.732;2023-10-19T05:24:08;0.20;;;0.20;;
80175;SDS011;71945;42.122;24.732;2023-10-19T05:26:34;0.20;;;0.20;;
80175;SDS011;71945;42.122;24.732;2023-10-19T05:29:00;0.20;;;0.20;;
80175;SDS011;71945;42.122;24.732;2023-10-19T05:31:25;0.20;;;0.20;;
80175;SDS011;71945;42.122;24.732;2023-10-19T05:33:53;0.20;;;0.20;;
80175;SDS011;71945;42.122;24.732;2023-10-19T05:36:19;0.20;;;0.20;;
80175;SDS011;71945;42.122;24.732;2023-10-19T05:38:44;0.20;;;0.20;;
80175;SDS011;71945;42.122;24.732;2023-10-19T05:41:10;0.20;;;0.20;;
80175;SDS011;71945;42.122;24.732;2023-10-19T05:43:37;0.20;;;0.20;;
80175;SDS011;71945;42.122;24.732;2023-10-19T05:46:03;0.20;;;0.20;;
80175;SDS011;71945;42.122;24.732;2023-10-19T05:48:29;0.22;;;0.22;;
80175;SDS011;71945;42.122;24.732;2023-10-19T05:50:56;0.20;;;0.20;;
80175;SDS011;71945;42.122;24.732;2023-10-19T05:53:21;0.20;;;0.20;;
80175;SDS011;71945;42.122;24.732;2023-10-19T05:55:50;0.20;;;0.20;;
80175;SDS011;71945;42.122;24.732;2023-10-19T05:58:16;0.30;;;0.30;;
80175;SDS011;71945;42.122;24.732;2023-10-19T06:00:42;0.30;;;0.30;;
80175;SDS011;71945;42.122;24.732;2023-10-19T06:03:07;0.20;;;0.20;;
80175;SDS011;71945;42.122;24.732;2023-10-19T06:05:33;0.28;;;0.28;;
80175;SDS011;71945;42.122;24.732;2023-10-19T06:07:59;0.20;;;0.20;;
80175;SDS011;71945;42.122;24.732;2023-10-19T06:10:25;0.20;;;0.20;;
80175;SDS011;71945;42.122;24.732;2023-10-19T06:12:52;0.20;;;0.20;;
80175;SDS011;71945;42.122;24.732;2023-10-19T06:15:19;0.25;;;0.25;;
80175;SDS011;71945;42.122;24.732;2023-10-19T06:17:46;0.20;;;0.20;;
80175;SDS011;71945;42.122;24.732;2023-10-19T06:20:13;0.20;;;0.20;;
80175;SDS011;71945;42.122;24.732;2023-10-19T06:22:50;0.20;;;0.20;;
80175;SDS011;71945;42.122;24.732;2023-10-19T06:25:19;0.20;;;0.20;;
80175;SDS011;71945;42.122;24.732;2023-10-19T06:27:46;0.20;;;0.20;;
80175;SDS011;71945;42.122;24.732;2023-10-19T06:30:13;0.20;;;0.20;;
80175;SDS011;71945;42.122;24.732;2023-10-19T06:32:53;0.20;;;0.20;;
80175;SDS011;71945;42.122;24.732;2023-10-19T06:35:20;0.20;;;0.20;;
80175;SDS011;71945;42.122;24.732;2023-10-19T06:37:46;0.20;;;0.20;;
80175;SDS011;71945;42.122;24.732;2023-10-19T06:40:13;0.20;;;0.20;;
80175;SDS011;71945;42.122;24.732;2023-10-19T06:42:45;0.20;;;0.20;;
80175;SDS011;71945;42.122;24.732;2023-10-19T06:45:12;0.20;;;0.20;;
80175;SDS011;71945;42.122;24.732;2023-10-19T06:47:51;0.20;;;0.20;;
80175;SDS011;71945;42.122;24.732;2023-10-19T06:50:19;0.20;;;0.20;;
80175;SDS011;71945;42.122;24.732;2023-10-19T06:52:45;0.20;;;0.20;;
80175;SDS011;71945;42.122;24.732;2023-10-19T06:55:13;0.17;;;0.17;;
80175;SDS011;71945;42.122;24.732;2023-10-19T06:57:40;0.20;;;0.20;;
80175;SDS011;71945;42.122;24.732;2023-10-19T07:00:08;0.20;;;0.20;;
80175;SDS011;71945;42.122;24.732;2023-10-19T07:02:54;0.20;;;0.20;;
80175;SDS011;71945;42.122;24.732;2023-10-19T07:05:21;0.20;;;0.20;;
80175;SDS011;71945;42.122;24.732;2023-10-19T07:07:49;0.20;;;0.20;;
80175;SDS011;71945;42.122;24.732;2023-10-19T07:10:17;0.20;;;0.20;;
80175;SDS011;71945;42.122;24.732;2023-10-19T07:12:44;0.20;;;0.20;;
80175;SDS011;71945;42.122;24.732;2023-10-19T07:15:11;0.20;;;0.20;;
80175;SDS011;71945;42.122;24.732;2023-10-19T07:17:40;0.17;;;0.17;;
80175;SDS011;71945;42.122;24.732;2023-10-19T07:20:07;0.20;;;0.20;;
80175;SDS011;71945;42.122;24.732;2023-10-19T07:22:42;0.20;;;0.20;;
80175;SDS011;71945;42.122;24.732;2023-10-19T07:25:09;0.20;;;0.20;;
80175;SDS011;71945;42.122;24.732;2023-10-19T07:27:36;0.20;;;0.20;;
80175;SDS011;71945;42.122;24.732;2023-10-19T07:30:02;0.20;;;0.20;;
80175;SDS011;71945;42.122;24.732;2023-10-19T07:32:31;0.20;;;0.20;;
80175;SDS011;71945;42.122;24.732;2023-10-19T07:34:58;0.20;;;0.20;;
80175;SDS011;71945;42.122;24.732;2023-10-19T07:37:24;0.20;;;0.20;;
80175;SDS011;71945;42.122;24.732;2023-10-19T07:39:49;0.20;;;0.20;;
80175;SDS011;71945;42.122;24.732;2023-10-19T07:42:17;0.20;;;0.20;;
80175;SDS011;71945;42.122;24.732;2023-10-19T07:44:43;0.20;;;0.20;;
80175;SDS011;71945;42.122;24.732;2023-10-19T07:47:10;0.20;;;0.20;;
80175;SDS011;71945;42.122;24.732;2023-10-19T07:49:37;0.20;;;0.20;;
80175;SDS011;71945;42.122;24.732;2023-10-19T07:52:06;0.20;;;0.20;;
80175;SDS011;71945;42.122;24.732;2023-10-19T07:54:35;0.20;;;0.20;;
80175;SDS011;71945;42.122;24.732;2023-10-19T07:57:02;0.20;;;0.20;;
80175;SDS011;71945;42.122;24.732;2023-10-19T07:59:31;0.10;;;0.10;;
80175;SDS011;71945;42.122;24.732;2023-10-19T08:01:57;0.20;;;0.20;;
80175;SDS011;71945;42.122;24.732;2023-10-19T08:04:23;0.13;;;0.13;;
80175;SDS011;71945;42.122;24.732;2023-10-19T08:06:50;0.20;;;0.20;;
80175;SDS011;71945;42.122;24.732;2023-10-19T08:09:16;0.20;;;0.20;;
80175;SDS011;71945;42.122;24.732;2023-10-19T08:11:48;0.20;;;0.20;;
80175;SDS011;71945;42.122;24.732;2023-10-19T08:14:21;0.10;;;0.10;;
80175;SDS011;71945;42.122;24.732;2023-10-19T08:16:49;0.20;;;0.20;;
80175;SDS011;71945;42.122;24.732;2023-10-19T08:19:16;0.20;;;0.20;;
80175;SDS011;71945;42.122;24.732;2023-10-19T08:21:41;0.10;;;0.10;;
80175;SDS011;71945;42.122;24.732;2023-10-19T08:24:07;0.10;;;0.10;;
80175;SDS011;71945;42.122;24.732;2023-10-19T08:26:39;0.10;;;0.10;;
80175;SDS011;71945;42.122;24.732;2023-10-19T08:29:06;0.10;;;0.10;;
80175;SDS011;71945;42.122;24.732;2023-10-19T08:31:38;0.10;;;0.10;;
80175;SDS011;71945;42.122;24.732;2023-10-19T08:34:05;0.20;;;0.20;;
80175;SDS011;71945;42.122;24.732;2023-10-19T08:36:31;0.10;;;0.10;;
80175;SDS011;71945;42.122;24.732;2023-10-19T08:38:56;0.10;;;0.10;;
80175;SDS011;71945;42.122;24.732;2023-10-19T08:41:22;0.10;;;0.10;;
80175;SDS011;71945;42.122;24.732;2023-10-19T08:43:48;0.10;;;0.10;;
80175;SDS011;71945;42.122;24.732;2023-10-19T08:46:16;0.10;;;0.10;;
80175;SDS011;71945;42.122;24.732;2023-10-19T08:48:42;0.10;;;0.10;;
80175;SDS011;71945;42.122;24.732;2023-10-19T08:51:11;0.10;;;0.10;;
80175;SDS011;71945;42.122;24.732;2023-10-19T08:53:37;0.10;;;0.10;;
80175;SDS011;71945;42.122;24.732;2023-10-19T08:56:05;0.13;;;0.13;;
80175;SDS011;71945;42.122;24.732;2023-10-19T08:58:32;0.10;;;0.10;;
80175;SDS011;71945;42.122;24.732;2023-10-19T09:00:59;0.10;;;0.10;;
80175;SDS011;71945;42.122;24.732;2023-10-19T09:03:31;0.20;;;0.20;;
80175;SDS011;71945;42.122;24.732;2023-10-19T09:06:00;0.10;;;0.10;;
80175;SDS011;71945;42.122;24.732;2023-10-19T09:08:30;0.10;;;0.10;;
80175;SDS011;71945;42.122;24.732;2023-10-19T09:11:08;0.10;;;0.10;;
80175;SDS011;71945;42.122;24.732;2023-10-19T09:14:09;0.10;;;0.10;;
80175;SDS011;71945;42.122;24.732;2023-10-19T09:16:31;0.10;;;0.10;;
80175;SDS011;71945;42.122;24.732;2023-10-19T09:18:57;0.10;;;0.10;;
80175;SDS011;71945;42.122;24.732;2023-10-19T09:21:22;0.10;;;0.10;;
80175;SDS011;71945;42.122;24.732;2023-10-19T09:23:52;0.10;;;0.10;;
80175;SDS011;71945;42.122;24.732;2023-10-19T09:26:19;0.10;;;0.10;;
80175;SDS011;71945;42.122;24.732;2023-10-19T09:28:47;0.10;;;0.10;;
80175;SDS011;71945;42.122;24.732;2023-10-19T09:31:18;0.00;;;0.00;;
80175;SDS011;71945;42.122;24.732;2023-10-19T09:33:46;0.10;;;0.10;;
80175;SDS011;71945;42.122;24.732;2023-10-19T09:36:13;0.10;;;0.10;;
80175;SDS011;71945;42.122;24.732;2023-10-19T09:38:46;0.05;;;0.05;;
80175;SDS011;71945;42.122;24.732;2023-10-19T09:41:19;0.00;;;0.00;;
80175;SDS011;71945;42.122;24.732;2023-10-19T09:43:47;0.08;;;0.08;;
80175;SDS011;71945;42.122;24.732;2023-10-19T09:48:51;0.00;;;0.00;;
80175;SDS011;71945;42.122;24.732;2023-10-19T09:51:17;0.10;;;0.10;;
80175;SDS011;71945;42.122;24.732;2023-10-19T09:56:31;0.00;;;0.00;;
80175;SDS011;71945;42.122;24.732;2023-10-19T09:59:11;0.10;;;0.10;;
80175;SDS011;71945;42.122;24.732;2023-10-19T10:04:38;0.00;;;0.00;;
80175;SDS011;71945;42.122;24.732;2023-10-19T10:07:05;0.00;;;0.00;;
80175;SDS011;71945;42.122;24.732;2023-10-19T10:09:36;0.00;;;0.00;;
80175;SDS011;71945;42.122;24.732;2023-10-19T10:12:18;0.00;;;0.00;;
80175;SDS011;71945;42.122;24.732;2023-10-19T10:14:55;0.00;;;0.00;;
80175;SDS011;71945;42.122;24.732;2023-10-19T10:17:34;0.00;;;0.00;;
80175;SDS011;71945;42.122;24.732;2023-10-19T10:22:38;0.00;;;0.00;;
80175;SDS011;71945;42.122;24.732;2023-10-19T10:25:06;0.00;;;0.00;;
80175;SDS011;71945;42.122;24.732;2023-10-19T10:27:32;0.00;;;0.00;;
80175;SDS011;71945;42.122;24.732;2023-10-19T10:30:02;0.00;;;0.00;;
80175;SDS011;71945;42.122;24.732;2023-10-19T10:35:57;0.00;;;0.00;;
80175;SDS011;71945;42.122;24.732;2023-10-19T10:38:19;0.00;;;0.00;;
80175;SDS011;71945;42.122;24.732;2023-10-19T10:40:46;0.00;;;0.00;;
80175;SDS011;71945;42.122;24.732;2023-10-19T10:43:13;0.00;;;0.00;;
80175;SDS011;71945;42.122;24.732;2023-10-19T10:45:39;0.00;;;0.00;;
80175;SDS011;71945;42.122;24.732;2023-10-19T10:48:14;0.00;;;0.00;;
80175;SDS011;71945;42.122;24.732;2023-10-19T10:50:41;0.00;;;0.00;;
80175;SDS011;71945;42.122;24.732;2023-10-19T10:53:08;0.00;;;0.00;;
80175;SDS011;71945;42.122;24.732;2023-10-19T10:55:36;0.00;;;0.00;;
80175;SDS011;71945;42.122;24.732;2023-10-19T10:58:02;0.00;;;0.00;;
80175;SDS011;71945;42.122;24.732;2023-10-19T11:00:28;0.00;;;0.00;;
80175;SDS011;71945;42.122;24.732;2023-10-19T11:02:59;0.00;;;0.00;;
80175;SDS011;71945;42.122;24.732;2023-10-19T11:05:25;0.00;;;0.00;;
80175;SDS011;71945;42.122;24.732;2023-10-19T11:08:08;0.00;;;0.00;;
80175;SDS011;71945;42.122;24.732;2023-10-19T11:10:38;0.00;;;0.00;;
80175;SDS011;71945;42.122;24.732;2023-10-19T11:13:12;0.00;;;0.00;;
80175;SDS011;71945;42.122;24.732;2023-10-19T11:15:47;0.00;;;0.00;;
80175;SDS011;71945;42.122;24.732;2023-10-19T11:18:33;0.00;;;0.00;;
80175;SDS011;71945;42.122;24.732;2023-10-19T11:21:09;0.00;;;0.00;;
80175;SDS011;71945;42.122;24.732;2023-10-19T11:26:03;0.00;;;0.00;;
80175;SDS011;71945;42.122;24.732;2023-10-19T11:28:30;0.00;;;0.00;;
80175;SDS011;71945;42.122;24.732;2023-10-19T11:31:18;0.00;;;0.00;;
80175;SDS011;71945;42.122;24.732;2023-10-19T11:33:45;0.00;;;0.00;;
80175;SDS011;71945;42.122;24.732;2023-10-19T11:36:13;0.00;;;0.00;;
80175;SDS011;71945;42.122;24.732;2023-10-19T11:38:42;0.00;;;0.00;;
80175;SDS011;71945;42.122;24.732;2023-10-19T11:41:10;0.00;;;0.00;;
80175;SDS011;71945;42.122;24.732;2023-10-19T11:43:38;0.00;;;0.00;;
80175;SDS011;71945;42.122;24.732;2023-10-19T11:46:04;0.00;;;0.00;;
80175;SDS011;71945;42.122;24.732;2023-10-19T11:48:31;0.00;;;0.00;;
80175;SDS011;71945;42.122;24.732;2023-10-19T11:50:59;0.00;;;0.00;;
80175;SDS011;71945;42.122;24.732;2023-10-19T11:53:25;0.00;;;0.00;;
80175;SDS011;71945;42.122;24.732;2023-10-19T11:56:08;0.00;;;0.00;;
80175;SDS011;71945;42.122;24.732;2023-10-19T11:58:36;0.00;;;0.00;;
80175;SDS011;71945;42.122;24.732;2023-10-19T12:01:05;0.00;;;0.00;;
80175;SDS011;71945;42.122;24.732;2023-10-19T12:03:35;0.00;;;0.00;;
80175;SDS011;71945;42.122;24.732;2023-10-19T12:06:03;0.00;;;0.00;;
80175;SDS011;71945;42.122;24.732;2023-10-19T12:08:32;0.00;;;0.00;;
80175;SDS011;71945;42.122;24.732;2023-10-19T12:10:59;0.00;;;0.00;;
80175;SDS011;71945;42.122;24.732;2023-10-19T12:13:27;0.00;;;0.00;;
80175;SDS011;71945;42.122;24.732;2023-10-19T12:15:56;0.00;;;0.00;;
80175;SDS011;71945;42.122;24.732;2023-10-19T12:18:22;0.00;;;0.00;;
80175;SDS011;71945;42.122;24.732;2023-10-19T12:20:51;0.00;;;0.00;;
80175;SDS011;71945;42.122;24.732;2023-10-19T12:23:21;0.00;;;0.00;;
80175;SDS011;71945;42.122;24.732;2023-10-19T12:25:48;0.00;;;0.00;;
80175;SDS011;71945;42.122;24.732;2023-10-19T12:28:14;0.00;;;0.00;;
80175;SDS011;71945;42.122;24.732;2023-10-19T12:30:41;0.00;;;0.00;;
80175;SDS011;71945;42.122;24.732;2023-10-19T12:33:07;0.00;;;0.00;;
80175;SDS011;71945;42.122;24.732;2023-10-19T12:35:42;0.00;;;0.00;;
80175;SDS011;71945;42.122;24.732;2023-10-19T12:38:18;0.00;;;0.00;;
80175;SDS011;71945;42.122;24.732;2023-10-19T12:40:49;0.00;;;0.00;;
80175;SDS011;71945;42.122;24.732;2023-10-19T12:43:19;0.00;;;0.00;;
80175;SDS011;71945;42.122;24.732;2023-10-19T12:45:48;0.00;;;0.00;;
80175;SDS011;71945;42.122;24.732;2023-10-19T12:48:22;0.00;;;0.00;;
80175;SDS011;71945;42.122;24.732;2023-10-19T12:50:55;0.00;;;0.00;;
80175;SDS011;71945;42.122;24.732;2023-10-19T12:53:20;0.00;;;0.00;;
80175;SDS011;71945;42.122;24.732;2023-10-19T12:55:49;0.00;;;0.00;;
80175;SDS011;71945;42.122;24.732;2023-10-19T12:58:16;0.00;;;0.00;;
80175;SDS011;71945;42.122;24.732;2023-10-19T13:00:44;0.00;;;0.00;;
80175;SDS011;71945;42.122;24.732;2023-10-19T13:03:12;0.00;;;0.00;;
80175;SDS011;71945;42.122;24.732;2023-10-19T13:05:39;0.00;;;0.00;;
80175;SDS011;71945;42.122;24.732;2023-10-19T13:08:06;0.00;;;0.00;;
80175;SDS011;71945;42.122;24.732;2023-10-19T13:10:33;0.00;;;0.00;;
80175;SDS011;71945;42.122;24.732;2023-10-19T13:13:00;0.00;;;0.00;;
80175;SDS011;71945;42.122;24.732;2023-10-19T13:15:31;0.00;;;0.00;;
80175;SDS011;71945;42.122;24.732;2023-10-19T13:17:57;0.00;;;0.00;;
80175;SDS011;71945;42.122;24.732;2023-10-19T13:20:27;0.00;;;0.00;;
80175;SDS011;71945;42.122;24.732;2023-10-19T13:22:58;0.00;;;0.00;;
80175;SDS011;71945;42.122;24.732;2023-10-19T13:25:31;0.00;;;0.00;;
80175;SDS011;71945;42.122;24.732;2023-10-19T13:28:10;0.00;;;0.00;;
80175;SDS011;71945;42.122;24.732;2023-10-19T13:30:50;0.00;;;0.00;;
80175;SDS011;71945;42.122;24.732;2023-10-19T13:33:19;0.00;;;0.00;;
80175;SDS011;71945;42.122;24.732;2023-10-19T13:35:47;0.00;;;0.00;;
80175;SDS011;71945;42.122;24.732;2023-10-19T13:38:13;0.00;;;0.00;;
80175;SDS011;71945;42.122;24.732;2023-10-19T13:40:41;0.00;;;0.00;;
80175;SDS011;71945;42.122;24.732;2023-10-19T13:43:07;0.00;;;0.00;;
80175;SDS011;71945;42.122;24.732;2023-10-19T13:45:36;0.00;;;0.00;;
80175;SDS011;71945;42.122;24.732;2023-10-19T13:48:07;0.00;;;0.00;;
80175;SDS011;71945;42.122;24.732;2023-10-19T13:53:00;0.00;;;0.00;;
80175;SDS011;71945;42.122;24.732;2023-10-19T13:55:30;0.00;;;0.00;;
80175;SDS011;71945;42.122;24.732;2023-10-19T13:57:56;0.00;;;0.00;;
80175;SDS011;71945;42.122;24.732;2023-10-19T14:00:22;0.00;;;0.00;;
80175;SDS011;71945;42.122;24.732;2023-10-19T14:02:50;0.00;;;0.00;;
80175;SDS011;71945;42.122;24.732;2023-10-19T14:05:16;0.00;;;0.00;;
80175;SDS011;71945;42.122;24.732;2023-10-19T14:07:43;0.00;;;0.00;;
80175;SDS011;71945;42.122;24.732;2023-10-19T14:10:12;0.00;;;0.00;;
80175;SDS011;71945;42.122;24.732;2023-10-19T14:12:42;0.00;;;0.00;;
80175;SDS011;71945;42.122;24.732;2023-10-19T14:15:13;0.00;;;0.00;;
80175;SDS011;71945;42.122;24.732;2023-10-19T14:17:48;0.00;;;0.00;;
80175;SDS011;71945;42.122;24.732;2023-10-19T14:20:15;0.00;;;0.00;;
80175;SDS011;71945;42.122;24.732;2023-10-19T14:22:42;0.00;;;0.00;;
80175;SDS011;71945;42.122;24.732;2023-10-19T14:25:10;0.00;;;0.00;;
80175;SDS011;71945;42.122;24.732;2023-10-19T14:32:40;0.00;;;0.00;;
80175;SDS011;71945;42.122;24.732;2023-10-19T14:35:10;0.00;;;0.00;;
80175;SDS011;71945;42.122;24.732;2023-10-19T14:37:39;0.00;;;0.00;;
80175;SDS011;71945;42.122;24.732;2023-10-19T14:40:09;0.00;;;0.00;;
80175;SDS011;71945;42.122;24.732;2023-10-19T14:42:39;0.00;;;0.00;;
80175;SDS011;71945;42.122;24.732;2023-10-19T14:45:06;0.00;;;0.00;;
80175;SDS011;71945;42.122;24.732;2023-10-19T14:47:38;0.00;;;0.00;;
80175;SDS011;71945;42.122;24.732;2023-10-19T14:50:07;0.00;;;0.00;;
80175;SDS011;71945;42.122;24.732;2023-10-19T14:52:40;0.00;;;0.00;;
80175;SDS011;71945;42.122;24.732;2023-10-19T14:55:06;0.00;;;0.00;;
80175;SDS011;71945;42.122;24.732;2023-10-19T14:57:33;0.00;;;0.00;;
80175;SDS011;71945;42.122;24.732;2023-10-19T14:59:59;0.00;;;0.00;;
80175;SDS011;71945;42.122;24.732;2023-10-19T15:02:48;0.00;;;0.00;;
80175;SDS011;71945;42.122;24.732;2023-10-19T15:05:16;0.00;;;0.00;;
80175;SDS011;71945;42.122;24.732;2023-10-19T15:07:46;0.00;;;0.00;;
80175;SDS011;71945;42.122;24.732;2023-10-19T15:10:18;0.00;;;0.00;;
80175;SDS011;71945;42.122;24.732;2023-10-19T15:12:45;0.00;;;0.00;;